Time;durP1;ratioP1;P1;durP2;ratioP2;P2;SDS_P1;SDS_P2;PMS_P1;PMS_P2;Temp;Humidity;BMP_temperature;BMP_pressure;BME280_temperature;BME280_humidity;BME280_pressure;Samples;Min_cycle;Max_cycle;Signal;HPM_P1;HPM_P2
2024/01/09 00:00:31;;;;;;;14.63;6.60;;;;;;;-3.65;100.00;96968.63;5037840;28;20679;-68
2024/01/09 00:02:58;;;;;;;14.10;5.83;;;;;;;-3.51;100.00;96959.34;5037782;28;20212;-68
2024/01/09 00:05:25;;;;;;;16.63;6.13;;;;;;;-3.60;100.00;96964.97;5037111;28;20234;-68
2024/01/09 00:07:51;;;;;;;13.70;6.20;;;;;;;-3.72;100.00;96960.38;5037837;28;20211;-68
2024/01/09 00:10:18;;;;;;;12.07;4.87;;;;;;;-3.64;100.00;96965.16;5038102;28;21070;-68
2024/01/09 00:12:44;;;;;;;11.40;4.83;;;;;;;-3.48;100.00;96949.72;5038315;28;20220;-68
2024/01/09 00:15:11;;;;;;;13.03;5.93;;;;;;;-3.65;100.00;96955.78;5037294;28;20600;-68
2024/01/09 00:17:37;;;;;;;15.17;6.17;;;;;;;-3.67;100.00;96949.88;5037364;28;21046;-68
2024/01/09 00:20:06;;;;;;;15.57;6.90;;;;;;;-3.61;100.00;96958.94;5038119;28;20201;-68
2024/01/09 00:22:33;;;;;;;19.10;7.30;;;;;;;-3.79;100.00;96953.03;5037951;28;20215;-68
2024/01/09 00:24:59;;;;;;;15.93;7.10;;;;;;;-3.65;100.00;96956.63;5037036;28;20237;-68
2024/01/09 00:27:26;;;;;;;18.00;6.33;;;;;;;-3.69;100.00;96954.25;5037344;28;20213;-68
2024/01/09 00:29:52;;;;;;;18.00;7.70;;;;;;;-3.72;100.00;96955.25;5037419;28;20236;-68
2024/01/09 00:32:19;;;;;;;15.53;7.93;;;;;;;-3.80;100.00;96959.94;5037767;28;20213;-68
2024/01/09 00:34:45;;;;;;;16.87;7.50;;;;;;;-3.78;100.00;96957.28;5036358;28;20672;-68
2024/01/09 00:37:13;;;;;;;11.83;5.80;;;;;;;-3.75;100.00;96950.25;5037772;28;20212;-68
2024/01/09 00:39:40;;;;;;;19.43;7.70;;;;;;;-3.80;100.00;96951.38;5038112;28;20202;-68
2024/01/09 00:42:06;;;;;;;13.67;6.07;;;;;;;-3.95;100.00;96952.13;5037246;28;20216;-68
2024/01/09 00:44:33;;;;;;;15.53;5.23;;;;;;;-3.79;100.00;96958.19;5036675;28;20205;-68
2024/01/09 00:46:59;;;;;;;19.80;8.80;;;;;;;-3.86;100.00;96955.06;5037224;28;20205;-68
2024/01/09 00:49:26;;;;;;;16.53;6.30;;;;;;;-3.97;100.00;96957.34;5036864;28;20221;-68
2024/01/09 00:51:52;;;;;;;15.33;7.40;;;;;;;-3.89;100.00;96956.97;5037260;28;20212;-68
2024/01/09 00:54:20;;;;;;;21.47;7.10;;;;;;;-3.94;100.00;96958.94;5036623;28;20216;-68
2024/01/09 00:56:47;;;;;;;19.83;8.03;;;;;;;-3.95;100.00;96954.69;5037052;28;20205;-68
2024/01/09 00:59:13;;;;;;;14.80;5.47;;;;;;;-3.94;100.00;96959.75;5037066;28;20197;-68
2024/01/09 01:01:40;;;;;;;14.43;6.83;;;;;;;-4.09;100.00;96957.06;5036222;28;20212;-68
2024/01/09 01:04:06;;;;;;;14.47;6.03;;;;;;;-4.06;100.00;96960.34;5036772;28;20598;-68
2024/01/09 01:06:40;;;;;;;13.60;5.37;;;;;;;-3.96;100.00;96955.59;5036794;28;20243;-68
2024/01/09 01:09:07;;;;;;;14.87;6.47;;;;;;;-4.01;100.00;96958.41;5036866;28;20228;-68
2024/01/09 01:11:35;;;;;;;18.33;7.57;;;;;;;-3.69;100.00;96959.41;5037281;28;20216;-68
2024/01/09 01:14:02;;;;;;;15.27;6.93;;;;;;;-3.94;100.00;96961.50;5035738;28;20212;-68
2024/01/09 01:16:28;;;;;;;20.23;8.60;;;;;;;-4.00;100.00;96951.50;5036169;28;20354;-68
2024/01/09 01:18:55;;;;;;;18.60;7.63;;;;;;;-4.08;100.00;96961.31;5036516;28;21261;-68
2024/01/09 01:21:22;;;;;;;19.47;6.97;;;;;;;-4.05;100.00;96966.31;5037069;28;20212;-68
2024/01/09 01:23:48;;;;;;;14.10;5.77;;;;;;;-4.16;100.00;96968.59;5035508;28;20689;-68
2024/01/09 01:26:15;;;;;;;17.17;5.83;;;;;;;-3.99;100.00;96973.75;5036643;28;20223;-68
2024/01/09 01:28:43;;;;;;;15.97;7.30;;;;;;;-4.06;100.00;96974.94;5035854;28;20221;-68
2024/01/09 01:31:10;;;;;;;17.07;6.43;;;;;;;-4.16;100.00;96984.03;5036657;28;20209;-68
2024/01/09 01:33:37;;;;;;;19.90;7.20;;;;;;;-4.21;100.00;96979.06;5036462;28;20208;-68
2024/01/09 01:36:04;;;;;;;11.03;6.00;;;;;;;-4.04;100.00;96973.13;5036831;28;20249;-68
2024/01/09 01:38:30;;;;;;;20.73;8.40;;;;;;;-4.10;100.00;96986.28;5035868;28;20287;-68
2024/01/09 01:40:57;;;;;;;13.70;6.37;;;;;;;-4.27;100.00;96981.09;5036520;28;20212;-68
2024/01/09 01:43:23;;;;;;;12.33;5.50;;;;;;;-4.47;100.00;96982.91;5036184;28;20292;-68
2024/01/09 01:45:51;;;;;;;15.80;5.23;;;;;;;-4.20;100.00;96983.31;5035357;28;20227;-68
2024/01/09 01:48:17;;;;;;;19.87;8.10;;;;;;;-4.16;100.00;96984.03;5036101;28;20235;-68
2024/01/09 01:50:44;;;;;;;17.33;7.60;;;;;;;-4.18;100.00;96981.50;5036462;28;20229;-68
2024/01/09 01:53:11;;;;;;;19.60;7.50;;;;;;;-4.24;100.00;96980.94;5036590;28;20197;-68
2024/01/09 01:55:37;;;;;;;19.70;6.23;;;;;;;-4.24;100.00;96972.41;5035429;28;20221;-68
2024/01/09 01:58:05;;;;;;;19.67;7.30;;;;;;;-4.22;100.00;96980.91;5035273;28;20207;-68
2024/01/09 02:00:32;;;;;;;16.93;7.30;;;;;;;-4.41;100.00;96972.34;5035835;28;20307;-68
2024/01/09 02:03:00;;;;;;;18.20;6.03;;;;;;;-4.13;100.00;96978.72;5035717;28;20988;-68
2024/01/09 02:05:28;;;;;;;16.33;7.13;;;;;;;-4.18;100.00;96975.53;5035232;28;20233;-68
2024/01/09 02:07:54;;;;;;;13.60;5.63;;;;;;;-4.38;100.00;96973.03;5036044;28;20288;-68
2024/01/09 02:10:21;;;;;;;17.07;5.70;;;;;;;-4.51;100.00;96984.78;5035456;28;21009;-68
2024/01/09 02:12:48;;;;;;;17.10;6.93;;;;;;;-4.49;100.00;96977.84;5035987;28;20224;-68
2024/01/09 02:15:15;;;;;;;14.63;6.07;;;;;;;-4.67;100.00;96981.25;5035687;28;20585;-68
2024/01/09 02:17:41;;;;;;;16.73;6.17;;;;;;;-4.61;100.00;96978.41;5035422;28;20589;-68
2024/01/09 02:20:10;;;;;;;17.13;7.10;;;;;;;-4.48;100.00;96982.09;5035575;28;20196;-68
2024/01/09 02:22:37;;;;;;;17.37;7.13;;;;;;;-4.58;100.00;96978.25;5035567;28;20197;-68
2024/01/09 02:25:04;;;;;;;16.57;6.93;;;;;;;-4.42;100.00;96980.97;5035683;28;20223;-68
2024/01/09 02:27:41;;;;;;;14.07;5.77;;;;;;;-4.34;100.00;96979.72;5035435;28;20198;-68
2024/01/09 02:30:10;;;;;;;11.57;4.70;;;;;;;-4.47;100.00;96978.59;5035642;28;20212;-68
2024/01/09 02:32:38;;;;;;;11.50;4.80;;;;;;;-4.58;100.00;96985.97;5036252;28;20212;-68
2024/01/09 02:35:05;;;;;;;13.93;6.43;;;;;;;-4.43;100.00;96969.84;5034802;28;20224;-68
2024/01/09 02:37:31;;;;;;;17.10;6.17;;;;;;;-4.43;100.00;96976.72;5035548;28;20212;-68
2024/01/09 02:39:58;;;;;;;14.33;5.23;;;;;;;-4.54;100.00;96977.22;5035649;28;20197;-68
2024/01/09 02:42:25;;;;;;;15.43;6.47;;;;;;;-4.58;100.00;96973.13;5035598;28;20709;-68
2024/01/09 02:44:53;;;;;;;20.23;7.60;;;;;;;-4.60;100.00;96968.94;5035270;28;20231;-68
2024/01/09 02:47:22;;;;;;;15.43;7.60;;;;;;;-4.54;100.00;96973.81;5035640;28;20302;-68
2024/01/09 02:49:48;;;;;;;18.17;7.23;;;;;;;-4.66;100.00;96974.34;5035404;28;20221;-68
2024/01/09 02:52:16;;;;;;;19.97;7.60;;;;;;;-4.62;100.00;96971.59;5035468;28;20211;-68
2024/01/09 02:54:42;;;;;;;18.23;6.20;;;;;;;-4.71;100.00;96968.56;5035115;28;20222;-68
2024/01/09 02:57:10;;;;;;;22.67;7.90;;;;;;;-4.54;100.00;96969.50;5035885;28;20205;-68
2024/01/09 02:59:37;;;;;;;12.07;4.73;;;;;;;-4.76;100.00;96966.22;5035248;28;20197;-68
2024/01/09 03:02:04;;;;;;;18.90;6.03;;;;;;;-4.74;100.00;96964.41;5033371;28;20212;-68
2024/01/09 03:04:31;;;;;;;18.23;6.93;;;;;;;-4.73;100.00;96960.94;5035663;28;20213;-68
2024/01/09 03:06:58;;;;;;;21.27;7.33;;;;;;;-4.73;100.00;96966.06;5035594;28;20772;-68
2024/01/09 03:09:25;;;;;;;22.03;8.03;;;;;;;-4.71;100.00;96969.44;5035126;28;20228;-68
2024/01/09 03:11:53;;;;;;;17.00;7.53;;;;;;;-4.79;100.00;96961.19;5038037;28;20688;-68
2024/01/09 03:14:19;;;;;;;20.30;8.90;;;;;;;-4.64;100.00;96970.81;5038640;28;20616;-68
2024/01/09 03:16:47;;;;;;;12.73;5.03;;;;;;;-4.80;100.00;96964.69;5039116;28;20201;-68
2024/01/09 03:19:14;;;;;;;13.30;5.20;;;;;;;-4.69;100.00;96962.47;5037513;28;20205;-68
2024/01/09 03:21:42;;;;;;;15.20;7.60;;;;;;;-4.66;100.00;96967.50;5038753;28;20205;-68
2024/01/09 03:24:09;;;;;;;14.67;4.90;;;;;;;-4.70;100.00;96965.97;5038694;28;20197;-68
2024/01/09 03:26:35;;;;;;;12.23;5.53;;;;;;;-4.71;100.00;96961.72;5038782;28;20853;-68
2024/01/09 03:29:04;;;;;;;13.67;5.93;;;;;;;-4.55;100.00;96965.25;5038575;28;20351;-68
2024/01/09 03:31:31;;;;;;;15.47;6.03;;;;;;;-4.74;100.00;96966.97;5038505;28;21078;-68
2024/01/09 03:33:58;;;;;;;18.67;7.03;;;;;;;-4.60;100.00;96966.38;5037822;28;20316;-68
2024/01/09 03:36:24;;;;;;;14.63;5.63;;;;;;;-4.65;100.00;96969.13;5038176;28;20247;-68
2024/01/09 03:38:53;;;;;;;13.10;5.73;;;;;;;-4.49;100.00;96959.84;5038154;28;20575;-68
2024/01/09 03:41:20;;;;;;;20.13;8.23;;;;;;;-4.79;100.00;96963.78;5038623;28;20209;-68
2024/01/09 03:43:46;;;;;;;21.17;7.73;;;;;;;-4.89;100.00;96966.00;5038159;28;20243;-68
2024/01/09 03:46:13;;;;;;;24.83;6.93;;;;;;;-4.72;100.00;96969.50;5037131;28;20235;-68
2024/01/09 03:48:39;;;;;;;12.47;4.93;;;;;;;-4.81;100.00;96963.03;5038392;28;20670;-68
2024/01/09 03:51:06;;;;;;;22.40;8.87;;;;;;;-4.78;100.00;96962.06;5038468;28;20231;-68
2024/01/09 03:53:33;;;;;;;21.77;7.87;;;;;;;-4.91;100.00;96965.22;5037603;28;20212;-68
2024/01/09 03:56:00;;;;;;;15.77;6.40;;;;;;;-4.96;100.00;96970.56;5037507;28;20239;-68
2024/01/09 03:58:27;;;;;;;13.10;5.13;;;;;;;-4.84;100.00;96964.88;5037895;28;20217;-68
2024/01/09 04:00:53;;;;;;;17.73;7.53;;;;;;;-4.51;100.00;96966.78;5036587;28;20196;-68
2024/01/09 04:03:20;;;;;;;14.13;5.93;;;;;;;-4.59;100.00;96962.91;5037564;28;20239;-68
2024/01/09 04:05:46;;;;;;;12.73;5.37;;;;;;;-4.68;100.00;96966.72;5037519;28;20221;-68
2024/01/09 04:08:13;;;;;;;16.50;6.93;;;;;;;-4.55;100.00;96954.97;5038047;28;20208;-68
2024/01/09 04:10:40;;;;;;;18.33;7.57;;;;;;;-4.63;100.00;96961.38;5037460;28;20228;-68
2024/01/09 04:13:08;;;;;;;17.87;6.97;;;;;;;-4.54;100.00;96968.69;5038052;28;20204;-67
2024/01/09 04:15:35;;;;;;;16.47;6.17;;;;;;;-4.50;100.00;96963.31;5037375;28;20228;-68
2024/01/09 04:18:02;;;;;;;14.50;5.70;;;;;;;-4.69;100.00;96962.47;5037336;28;20204;-68
2024/01/09 04:20:29;;;;;;;15.60;6.90;;;;;;;-4.76;100.00;96968.81;5038191;28;20207;-68
2024/01/09 04:22:55;;;;;;;18.90;7.20;;;;;;;-4.64;100.00;96968.25;5037353;28;20201;-68
2024/01/09 04:25:22;;;;;;;16.90;6.13;;;;;;;-4.69;100.00;96966.78;5037248;28;20598;-68
2024/01/09 04:27:48;;;;;;;15.37;5.70;;;;;;;-4.65;100.00;96964.00;5037873;28;20201;-68
2024/01/09 04:30:16;;;;;;;18.67;6.23;;;;;;;-4.54;100.00;96968.69;5037404;28;20230;-68
2024/01/09 04:32:43;;;;;;;11.80;5.10;;;;;;;-4.58;100.00;96970.53;5037636;28;20726;-68
2024/01/09 04:35:09;;;;;;;16.23;6.27;;;;;;;-4.72;100.00;96969.50;5037115;28;20225;-68
2024/01/09 04:37:36;;;;;;;19.33;5.50;;;;;;;-4.55;100.00;96967.00;5037584;28;20663;-68
2024/01/09 04:40:02;;;;;;;14.20;5.67;;;;;;;-4.79;100.00;96971.47;5037656;28;20211;-68
2024/01/09 04:42:29;;;;;;;17.97;7.10;;;;;;;-4.54;100.00;96977.22;5037333;28;20395;-68
2024/01/09 04:44:55;;;;;;;18.23;6.63;;;;;;;-4.46;100.00;96972.53;5036897;28;20223;-68
2024/01/09 04:47:23;;;;;;;16.53;6.37;;;;;;;-4.42;100.00;96966.34;5036227;28;20201;-68
2024/01/09 04:49:50;;;;;;;12.67;6.40;;;;;;;-4.56;100.00;96968.72;5037348;28;20232;-68
2024/01/09 04:52:16;;;;;;;17.50;7.67;;;;;;;-4.54;100.00;96972.06;5037249;28;20204;-68
2024/01/09 04:54:43;;;;;;;15.33;7.07;;;;;;;-4.62;100.00;96966.44;5037056;28;20228;-68
2024/01/09 04:57:09;;;;;;;24.77;9.23;;;;;;;-4.76;100.00;96975.66;5036546;28;20726;-68
2024/01/09 04:59:36;;;;;;;20.33;7.20;;;;;;;-4.71;100.00;96974.56;5036682;28;20219;-68
2024/01/09 05:02:02;;;;;;;16.73;6.87;;;;;;;-4.58;100.00;96979.97;5036777;28;20219;-68
2024/01/09 05:04:30;;;;;;;23.63;8.43;;;;;;;-4.39;100.00;96986.81;5036551;28;20207;-68
2024/01/09 05:06:57;;;;;;;25.00;9.40;;;;;;;-4.76;100.00;96989.34;5037057;28;20200;-68
2024/01/09 05:09:24;;;;;;;15.43;6.03;;;;;;;-4.59;100.00;96983.47;5036714;28;20210;-68
2024/01/09 05:11:51;;;;;;;16.33;6.10;;;;;;;-4.73;100.00;96985.81;5036996;28;20314;-68
2024/01/09 05:14:17;;;;;;;17.17;5.10;;;;;;;-4.43;100.00;96987.84;5035923;28;20204;-68
2024/01/09 05:16:44;;;;;;;13.97;5.97;;;;;;;-4.57;100.00;96977.38;5035777;28;20259;-68
2024/01/09 05:19:10;;;;;;;23.03;9.10;;;;;;;-4.48;100.00;96986.38;5036608;28;20200;-68
2024/01/09 05:21:38;;;;;;;20.33;7.73;;;;;;;-4.56;100.00;96981.56;5036863;28;20197;-68
2024/01/09 05:24:05;;;;;;;21.93;8.03;;;;;;;-4.44;100.00;96982.75;5035962;28;20670;-68
2024/01/09 05:26:32;;;;;;;25.47;8.67;;;;;;;-4.64;100.00;96983.66;5036344;28;20229;-68
2024/01/09 05:28:58;;;;;;;15.23;6.23;;;;;;;-4.58;100.00;96985.13;5036546;28;20199;-68
2024/01/09 05:31:25;;;;;;;16.33;5.83;;;;;;;-4.43;100.00;96987.84;5034903;28;20239;-68
2024/01/09 05:33:52;;;;;;;18.67;7.77;;;;;;;-4.51;100.00;96983.94;5035679;28;20205;-68
2024/01/09 05:36:22;;;;;;;21.47;7.67;;;;;;;-4.71;100.00;96984.84;5036066;28;20231;-68
2024/01/09 05:38:50;;;;;;;19.63;6.93;;;;;;;-4.59;100.00;96991.19;5036207;28;20295;-68
2024/01/09 05:41:20;;;;;;;12.63;5.70;;;;;;;-4.71;100.00;96994.28;5036015;28;20323;-68
2024/01/09 05:43:46;;;;;;;17.23;5.90;;;;;;;-4.74;100.00;96997.00;5035440;28;20201;-68
2024/01/09 05:46:13;;;;;;;15.43;5.80;;;;;;;-4.59;100.00;96989.44;5035660;28;20299;-68
2024/01/09 05:48:40;;;;;;;20.07;9.50;;;;;;;-4.56;100.00;96989.28;5036388;28;20208;-68
2024/01/09 05:51:09;;;;;;;13.77;6.40;;;;;;;-4.44;100.00;96998.19;5036851;28;20255;-68
2024/01/09 05:53:36;;;;;;;14.10;6.30;;;;;;;-4.72;100.00;96992.63;5035447;28;20205;-68
2024/01/09 05:56:04;;;;;;;14.40;5.70;;;;;;;-4.58;100.00;96995.41;5035974;28;20790;-68
2024/01/09 05:58:30;;;;;;;24.80;7.30;;;;;;;-4.60;100.00;96998.03;5035609;28;20201;-68
2024/01/09 06:00:57;;;;;;;28.27;9.60;;;;;;;-4.66;100.00;96998.34;5035975;28;20211;-68
2024/01/09 06:03:23;;;;;;;23.80;8.23;;;;;;;-4.71;100.00;97002.84;5035882;28;20205;-68
2024/01/09 06:05:51;;;;;;;24.77;8.57;;;;;;;-4.80;100.00;97002.41;5035887;28;20681;-68
2024/01/09 06:08:17;;;;;;;18.83;6.67;;;;;;;-4.78;100.00;97005.75;5035765;28;20215;-68
2024/01/09 06:10:44;;;;;;;21.93;8.80;;;;;;;-4.71;100.00;97005.41;5036059;28;20232;-68
2024/01/09 06:13:12;;;;;;;17.67;7.47;;;;;;;-4.94;100.00;97004.72;5036235;28;20767;-67
2024/01/09 06:15:38;;;;;;;15.83;6.17;;;;;;;-4.98;100.00;97000.63;5034856;28;20221;-68
2024/01/09 06:18:05;;;;;;;21.43;8.17;;;;;;;-4.86;100.00;97007.81;5035490;28;20208;-68
2024/01/09 06:20:32;;;;;;;20.60;8.50;;;;;;;-5.08;100.00;97011.38;5035676;28;20229;-68
2024/01/09 06:22:58;;;;;;;20.60;8.53;;;;;;;-4.93;100.00;97003.84;5036222;28;21050;-68
2024/01/09 06:25:25;;;;;;;15.07;7.13;;;;;;;-4.94;100.00;97006.47;5034992;28;20237;-68
2024/01/09 06:27:51;;;;;;;19.10;7.87;;;;;;;-4.94;100.00;97004.72;5035847;28;20197;-68
2024/01/09 06:30:19;;;;;;;17.73;7.43;;;;;;;-4.76;100.00;97014.22;5035905;28;20236;-68
2024/01/09 06:32:46;;;;;;;20.43;7.97;;;;;;;-5.00;100.00;97014.44;5035778;28;20204;-68
2024/01/09 06:35:12;;;;;;;18.43;7.20;;;;;;;-4.89;100.00;97004.53;5035476;28;20280;-68
2024/01/09 06:37:39;;;;;;;17.67;6.60;;;;;;;-4.85;100.00;97009.47;5035613;28;20231;-68
2024/01/09 06:40:06;;;;;;;15.67;6.43;;;;;;;-4.86;100.00;97006.97;5035623;28;20220;-68
2024/01/09 06:42:33;;;;;;;13.17;5.87;;;;;;;-4.87;100.00;97018.16;5035243;28;21311;-68
2024/01/09 06:44:59;;;;;;;14.43;6.87;;;;;;;-4.69;100.00;97018.19;5037375;28;20220;-68
2024/01/09 06:47:27;;;;;;;16.97;6.93;;;;;;;-4.84;100.00;97018.03;5038654;28;20449;-68
2024/01/09 06:49:54;;;;;;;20.23;8.80;;;;;;;-4.83;100.00;97019.72;5039604;28;20242;-68
2024/01/09 06:52:20;;;;;;;16.50;5.93;;;;;;;-5.02;100.00;97009.38;5040044;28;20227;-68
2024/01/09 06:54:47;;;;;;;21.33;5.97;;;;;;;-4.90;100.00;97019.16;5039308;28;20728;-68
2024/01/09 06:57:13;;;;;;;18.80;8.17;;;;;;;-5.10;100.00;97026.03;5039176;28;20875;-68
2024/01/09 06:59:44;;;;;;;20.37;6.80;;;;;;;-4.95;100.00;97021.06;5039027;28;20216;-68
2024/01/09 07:02:10;;;;;;;16.20;7.13;;;;;;;-4.96;100.00;97028.81;5039794;28;20205;-68
2024/01/09 07:04:38;;;;;;;16.60;6.97;;;;;;;-4.97;100.00;97030.56;5038353;28;20200;-68
2024/01/09 07:07:05;;;;;;;17.37;6.57;;;;;;;-4.81;100.00;97035.00;5039026;28;20208;-68
2024/01/09 07:09:32;;;;;;;17.60;8.20;;;;;;;-5.03;100.00;97032.56;5039071;28;20458;-68
2024/01/09 07:11:58;;;;;;;16.47;6.33;;;;;;;-5.04;100.00;97030.88;5040067;28;20225;-68
2024/01/09 07:14:25;;;;;;;18.03;6.80;;;;;;;-5.27;100.00;97037.00;5038143;28;20215;-68
2024/01/09 07:16:52;;;;;;;17.93;6.63;;;;;;;-5.16;100.00;97041.69;5038687;28;20204;-68
2024/01/09 07:19:18;;;;;;;22.40;9.37;;;;;;;-5.30;100.00;97041.44;5038845;28;20211;-68
2024/01/09 07:21:46;;;;;;;26.73;9.43;;;;;;;-5.12;100.00;97043.22;5039583;28;20296;-68
2024/01/09 07:24:13;;;;;;;13.13;5.90;;;;;;;-5.10;100.00;97037.13;5038933;28;20210;-68
2024/01/09 07:26:40;;;;;;;22.50;8.23;;;;;;;-4.99;100.00;97049.53;5038473;28;20230;-68
2024/01/09 07:29:07;;;;;;;18.07;7.73;;;;;;;-5.31;100.00;97050.03;5039409;28;20726;-68
2024/01/09 07:31:33;;;;;;;24.20;9.13;;;;;;;-5.22;100.00;97053.06;5038102;28;20233;-68
2024/01/09 07:34:00;;;;;;;15.37;5.83;;;;;;;-5.20;100.00;97055.56;5038266;28;20212;-68
2024/01/09 07:36:27;;;;;;;14.57;6.73;;;;;;;-5.27;100.00;97049.84;5039121;28;20230;-68
2024/01/09 07:38:54;;;;;;;13.57;6.10;;;;;;;-4.99;100.00;97060.66;5039526;28;20666;-68
2024/01/09 07:41:21;;;;;;;16.27;6.57;;;;;;;-5.00;100.00;97052.97;5037483;28;20204;-68
2024/01/09 07:43:47;;;;;;;17.40;6.23;;;;;;;-5.03;100.00;97058.25;5037925;28;20200;-68
2024/01/09 07:46:14;;;;;;;18.70;7.07;;;;;;;-4.86;100.00;97051.53;5039115;28;20226;-68
2024/01/09 07:48:41;;;;;;;14.07;6.97;;;;;;;-4.96;100.00;97064.78;5037719;28;20211;-68
2024/01/09 07:51:08;;;;;;;16.20;6.73;;;;;;;-5.00;100.00;97065.81;5038697;28;20262;-68
2024/01/09 07:53:34;;;;;;;14.97;6.30;;;;;;;-4.95;100.00;97064.75;5032786;28;20693;-68
2024/01/09 07:56:02;;;;;;;22.90;8.17;;;;;;;-4.99;100.00;97076.06;5036222;28;20765;-68
2024/01/09 07:58:29;;;;;;;22.23;7.37;;;;;;;-4.89;100.00;97071.38;5036184;28;20230;-68
2024/01/09 08:00:55;;;;;;;22.40;8.53;;;;;;;-5.00;100.00;97071.81;5037205;28;21018;-68
2024/01/09 08:03:22;;;;;;;18.60;7.03;;;;;;;-5.22;100.00;97072.75;5036507;28;20207;-68
2024/01/09 08:05:48;;;;;;;20.13;8.53;;;;;;;-5.03;100.00;97068.53;5035799;28;20221;-68
2024/01/09 08:08:15;;;;;;;16.73;6.17;;;;;;;-4.91;100.00;97063.72;5036865;28;20227;-68
2024/01/09 08:10:42;;;;;;;19.60;7.33;;;;;;;-5.08;100.00;97067.88;5036455;28;20205;-68
2024/01/09 08:13:10;;;;;;;18.53;7.83;;;;;;;-4.81;100.00;97067.59;5036525;28;20211;-68
2024/01/09 08:15:36;;;;;;;17.50;7.30;;;;;;;-4.96;100.00;97069.94;5034849;28;20231;-68
2024/01/09 08:18:03;;;;;;;21.40;7.47;;;;;;;-5.12;100.00;97068.91;5035981;28;20209;-68
2024/01/09 08:20:30;;;;;;;17.10;6.80;;;;;;;-5.00;100.00;97076.09;5036498;28;20211;-68
2024/01/09 08:22:56;;;;;;;28.07;9.50;;;;;;;-4.90;100.00;97079.97;5037615;28;20295;-68
2024/01/09 08:25:23;;;;;;;14.83;6.17;;;;;;;-4.94;100.00;97081.00;5036207;28;20220;-68
2024/01/09 08:27:49;;;;;;;16.70;6.93;;;;;;;-4.82;100.00;97079.56;5036041;28;20201;-68
2024/01/09 08:30:17;;;;;;;19.23;7.17;;;;;;;-4.82;100.00;97079.56;5033803;28;20717;-68
2024/01/09 08:32:44;;;;;;;19.73;8.83;;;;;;;-4.69;100.00;97080.72;5036302;28;20247;-68
2024/01/09 08:35:11;;;;;;;19.47;8.30;;;;;;;-4.96;100.00;97078.50;5035705;28;21403;-68
2024/01/09 08:37:37;;;;;;;19.60;8.57;;;;;;;-4.73;100.00;97079.19;5036214;28;20944;-68
2024/01/09 08:40:04;;;;;;;18.87;7.77;;;;;;;-4.81;100.00;97086.38;5035714;28;20621;-68
2024/01/09 08:42:31;;;;;;;16.33;6.97;;;;;;;-4.83;100.00;97076.25;5035988;28;20204;-68
2024/01/09 08:44:58;;;;;;;18.70;6.43;;;;;;;-4.84;100.00;97084.84;5035538;28;20970;-68
2024/01/09 08:47:26;;;;;;;15.33;6.27;;;;;;;-4.86;100.00;97081.50;5035388;28;20213;-68
2024/01/09 08:49:53;;;;;;;19.50;6.90;;;;;;;-4.73;100.00;97080.94;5035111;28;20741;-68
2024/01/09 08:52:24;;;;;;;13.67;6.13;;;;;;;-4.88;100.00;97084.13;5035897;28;20224;-68
2024/01/09 08:54:51;;;;;;;14.63;7.30;;;;;;;-5.02;100.00;97085.63;5036242;28;20740;-68
2024/01/09 08:57:17;;;;;;;19.57;7.90;;;;;;;-4.86;100.00;97081.50;5036188;28;20203;-68
2024/01/09 08:59:44;;;;;;;20.83;8.23;;;;;;;-4.89;100.00;97086.78;5035215;28;20212;-68
2024/01/09 09:02:10;;;;;;;18.30;7.43;;;;;;;-4.49;100.00;97085.00;5036256;28;20580;-68
2024/01/09 09:04:38;;;;;;;17.73;6.77;;;;;;;-4.44;100.00;97086.47;5035687;28;20469;-68
2024/01/09 09:07:05;;;;;;;18.77;6.13;;;;;;;-4.40;100.00;97087.16;5035980;28;20212;-68
2024/01/09 09:09:34;;;;;;;22.33;8.97;;;;;;;-4.44;100.00;97093.34;5034834;28;20208;-68
2024/01/09 09:12:01;;;;;;;15.57;6.07;;;;;;;-4.50;100.00;97086.75;5036110;28;20706;-68
2024/01/09 09:14:27;;;;;;;18.97;7.07;;;;;;;-4.46;100.00;97083.13;5035701;28;20749;-68
2024/01/09 09:16:54;;;;;;;22.30;8.60;;;;;;;-4.42;100.00;97088.97;5035780;28;20220;-69
2024/01/09 09:19:22;;;;;;;24.90;8.17;;;;;;;-4.61;100.00;97078.69;5036596;28;20204;-68
2024/01/09 09:21:50;;;;;;;20.43;8.13;;;;;;;-4.17;100.00;97080.09;5036487;28;20200;-68
2024/01/09 09:24:17;;;;;;;15.67;6.30;;;;;;;-4.21;100.00;97088.88;5036121;28;20212;-68
2024/01/09 09:26:44;;;;;;;22.40;7.90;;;;;;;-4.27;100.00;97083.16;5035682;28;20593;-68
2024/01/09 09:29:10;;;;;;;19.57;7.90;;;;;;;-4.00;100.00;97085.31;5036917;28;20205;-68
2024/01/09 09:31:37;;;;;;;24.93;8.03;;;;;;;-3.87;100.00;97083.84;5035566;28;20221;-68
2024/01/09 09:34:03;;;;;;;21.17;7.83;;;;;;;-3.95;100.00;97085.94;5036195;28;20201;-68
2024/01/09 09:36:30;;;;;;;19.77;6.97;;;;;;;-3.92;100.00;97080.66;5036282;28;20714;-68
2024/01/09 09:38:58;;;;;;;20.73;8.13;;;;;;;-4.00;100.00;97082.75;5035796;28;20200;-68
2024/01/09 09:41:24;;;;;;;22.70;9.07;;;;;;;-3.96;100.00;97084.28;5036152;28;20202;-68
2024/01/09 09:43:56;;;;;;;24.33;8.47;;;;;;;-3.95;100.00;97079.06;5035743;28;20278;-68
2024/01/09 09:46:25;;;;;;;18.70;8.20;;;;;;;-3.85;100.00;97082.06;5036503;28;20221;-68
2024/01/09 09:48:54;;;;;;;24.50;7.67;;;;;;;-3.89;100.00;97085.69;5034930;28;20205;-68
2024/01/09 09:51:21;;;;;;;22.00;8.83;;;;;;;-3.91;100.00;97077.19;5035907;28;20239;-68
2024/01/09 09:53:48;;;;;;;22.40;8.37;;;;;;;-3.85;100.00;97072.56;5035186;28;20210;-68
2024/01/09 09:56:16;;;;;;;23.30;8.47;;;;;;;-3.71;100.00;97082.25;5035848;28;20722;-68
2024/01/09 09:58:43;;;;;;;21.43;8.63;;;;;;;-3.85;100.00;97082.06;5035498;28;20611;-68
2024/01/09 10:01:11;;;;;;;23.50;8.73;;;;;;;-3.63;100.00;97077.56;5036439;28;20789;-68
2024/01/09 10:03:51;;;;;;;21.80;8.87;;;;;;;-3.41;100.00;97074.75;5035230;28;20574;-66
2024/01/09 10:06:19;;;;;;;20.53;7.37;;;;;;;-3.64;100.00;97066.41;5035996;28;20231;-66
2024/01/09 10:08:48;;;;;;;21.63;8.23;;;;;;;-3.41;100.00;97069.59;5035752;28;21105;-68
2024/01/09 10:11:16;;;;;;;21.00;8.23;;;;;;;-3.22;100.00;97061.78;5035984;28;20205;-68
2024/01/09 10:13:43;;;;;;;23.87;8.27;;;;;;;-3.26;100.00;97068.00;5035554;28;20208;-68
2024/01/09 10:16:10;;;;;;;17.10;7.43;;;;;;;-3.32;100.00;97063.13;5035510;28;20320;-68
2024/01/09 10:18:37;;;;;;;18.87;6.17;;;;;;;-3.31;100.00;97060.50;5035096;28;20697;-69
2024/01/09 10:21:05;;;;;;;19.30;6.77;;;;;;;-3.21;100.00;97060.88;5039131;28;20198;-68
2024/01/09 10:23:32;;;;;;;19.70;7.80;;;;;;;-3.18;100.00;97056.44;5039131;28;20215;-68
2024/01/09 10:25:58;;;;;;;17.87;7.97;;;;;;;-3.22;100.00;97054.06;5039801;28;20312;-66
2024/01/09 10:28:26;;;;;;;23.60;8.13;;;;;;;-3.10;100.00;97053.47;5039676;28;20220;-68
2024/01/09 10:30:53;;;;;;;19.33;6.83;;;;;;;-3.34;100.00;97055.50;5039900;28;20207;-68
2024/01/09 10:33:20;;;;;;;18.27;7.23;;;;;;;-3.24;100.00;97050.75;5039862;28;20769;-68
2024/01/09 10:35:46;;;;;;;15.87;6.97;;;;;;;-3.04;100.00;97053.16;5039530;28;20572;-68
2024/01/09 10:38:13;;;;;;;17.00;6.67;;;;;;;-2.68;100.00;97052.16;5040340;28;20211;-68
2024/01/09 10:40:40;;;;;;;17.23;7.67;;;;;;;-2.69;100.00;97056.47;5039911;28;20291;-68
2024/01/09 10:43:06;;;;;;;22.10;8.23;;;;;;;-2.91;100.00;97055.88;5039773;28;20202;-68
2024/01/09 10:45:34;;;;;;;16.67;6.47;;;;;;;-2.96;100.00;97057.03;5033048;28;20229;-68
2024/01/09 10:48:04;;;;;;;19.37;6.93;;;;;;;-2.90;100.00;97054.97;5037204;28;20199;-68
2024/01/09 10:50:30;;;;;;;18.13;6.33;;;;;;;-3.13;100.00;97049.31;5037096;28;20211;-68
2024/01/09 10:52:57;;;;;;;19.63;6.17;;;;;;;-2.85;100.00;97045.25;5037842;28;20222;-68
2024/01/09 10:55:24;;;;;;;22.03;6.70;;;;;;;-2.82;100.00;97047.69;5030290;28;20229;-68
2024/01/09 10:57:51;;;;;;;22.17;8.50;;;;;;;-2.69;100.00;97050.47;5035911;28;20209;-68
2024/01/09 11:00:19;;;;;;;18.47;7.13;;;;;;;-2.74;100.00;97042.13;5038271;28;20203;-68
2024/01/09 11:02:47;;;;;;;15.90;6.17;;;;;;;-2.51;100.00;97039.22;5037349;28;20223;-66
2024/01/09 11:05:14;;;;;;;19.80;7.10;;;;;;;-2.64;100.00;97038.19;5036793;28;20275;-66
2024/01/09 11:07:43;;;;;;;18.57;7.40;;;;;;;-2.32;100.00;97031.28;5036822;28;20220;-66
2024/01/09 11:10:16;;;;;;;15.77;6.43;;;;;;;-2.36;100.00;97034.09;5037841;28;20214;-66
2024/01/09 11:12:45;;;;;;;16.37;5.53;;;;;;;-2.75;100.00;97032.72;5037117;28;20227;-68
2024/01/09 11:15:17;;;;;;;12.87;5.10;;;;;;;-2.60;100.00;97027.63;5036579;28;20222;-68